createdAt,value
2019-01-06T00:05:33.502Z,102290.49
2019-01-06T00:08:22.249Z,102295.50
2019-01-06T00:13:51.795Z,102289.16
2019-01-06T00:16:59.801Z,102288.79
2019-01-06T00:25:30.678Z,102286.30
2019-01-06T00:33:56.542Z,102283.50
2019-01-06T00:40:03.580Z,102290.69
2019-01-06T00:43:11.666Z,102290.01
2019-01-06T00:46:00.439Z,102290.01
2019-01-06T00:51:59.680Z,102298.18
2019-01-06T00:54:48.356Z,102297.33
2019-01-06T00:57:37.055Z,102305.78
2019-01-06T01:03:46.735Z,102296.51
2019-01-06T01:06:35.479Z,102304.77
2019-01-06T01:12:59.801Z,102307.74
2019-01-06T01:16:01.031Z,102314.91
2019-01-06T01:18:49.491Z,102314.91
2019-01-06T01:21:38.255Z,102316.77
2019-01-06T01:27:27.855Z,102323.28
2019-01-06T01:30:17.998Z,102330.48
2019-01-06T01:35:56.767Z,102327.47
2019-01-06T01:44:10.927Z,102329.59
2019-01-06T01:46:59.924Z,102328.73
2019-01-06T01:49:48.482Z,102328.66
2019-01-06T01:55:19.095Z,102335.03
2019-01-06T01:58:07.746Z,102339.06
2019-01-06T02:00:56.518Z,102341.67
2019-01-06T02:03:44.991Z,102338.53
2019-01-06T02:06:28.959Z,102332.47
2019-01-06T02:09:17.724Z,102332.47
2019-01-06T02:14:45.835Z,102330.60
2019-01-06T02:17:31.789Z,102342.48
2019-01-06T02:20:20.459Z,102342.48
2019-01-06T02:23:09.235Z,102342.76
2019-01-06T02:28:47.722Z,102345.97
2019-01-06T02:34:31.861Z,102342.47
2019-01-06T02:40:28.762Z,102349.39
2019-01-06T02:45:57.990Z,102350.28
2019-01-06T02:48:41.973Z,102344.02
2019-01-06T02:51:42.646Z,102349.80
2019-01-06T02:54:31.429Z,102349.80
2019-01-06T02:57:19.922Z,102348.38
2019-01-06T03:00:08.674Z,102351.06
2019-01-06T03:05:37.844Z,102348.01
2019-01-06T03:08:26.623Z,102355.36
2019-01-06T03:11:15.090Z,102355.36
2019-01-06T03:14:04.957Z,102353.08
2019-01-06T03:16:53.739Z,102348.01
2019-01-06T03:19:43.076Z,102349.14
2019-01-06T03:22:51.018Z,102339.45
2019-01-06T03:25:39.682Z,102343.36
2019-01-06T03:28:28.241Z,102343.36
2019-01-06T03:31:16.929Z,102340.67
2019-01-06T03:34:05.947Z,102342.47
2019-01-06T03:36:54.396Z,102339.33
2019-01-06T03:39:42.876Z,102334.89
2019-01-06T03:42:31.338Z,102342.27
2019-01-06T03:45:19.832Z,102344.36
2019-01-06T03:48:08.303Z,102347.04
2019-01-06T03:50:56.799Z,102352.36
2019-01-06T03:56:25.235Z,102352.97
2019-01-06T04:04:50.886Z,102354.72
2019-01-06T04:07:39.342Z,102354.72
2019-01-06T04:10:47.253Z,102357.85
2019-01-06T04:13:30.488Z,102347.45
2019-01-06T04:16:18.978Z,102347.45
2019-01-06T04:21:48.206Z,102361.55
2019-01-06T04:24:36.976Z,102360.31
2019-01-06T04:27:25.442Z,102363.75
2019-01-06T04:30:14.266Z,102359.67
2019-01-06T04:33:22.442Z,102361.95
2019-01-06T04:36:11.208Z,102365.57
2019-01-06T04:39:00.419Z,102360.28
2019-01-06T04:41:50.739Z,102364.16
2019-01-06T04:50:15.492Z,102364.34
2019-01-06T04:56:00.457Z,102369.59
2019-01-06T05:02:00.365Z,102374.48
2019-01-06T05:07:41.467Z,102368.52
2019-01-06T05:10:30.259Z,102378.39
2019-01-06T05:13:18.729Z,102371.75
2019-01-06T05:21:43.976Z,102370.80
2019-01-06T05:24:32.463Z,102365.87
2019-01-06T05:27:20.935Z,102374.83
2019-01-06T05:30:09.693Z,102376.28
2019-01-06T05:32:58.164Z,102369.91
2019-01-06T05:35:46.643Z,102377.09
2019-01-06T05:41:39.571Z,102376.28
2019-01-06T05:44:40.851Z,102381.64
2019-01-06T05:47:27.533Z,102389.25
2019-01-06T05:50:16.311Z,102389.25
2019-01-06T05:52:53.171Z,102390.11
2019-01-06T05:55:41.656Z,102390.03
2019-01-06T06:01:28.460Z,102391.59
2019-01-06T06:25:32.554Z,102405.35
2019-01-06T06:28:21.318Z,102403.52
2019-01-06T06:36:52.298Z,102412.80
2019-01-06T08:19:12.012Z,102504.65
2019-01-06T08:24:41.504Z,102508.86
2019-01-06T08:27:29.982Z,102508.86
2019-01-06T08:30:18.762Z,102514.91
2019-01-06T08:33:07.798Z,102521.61
2019-01-06T08:41:34.830Z,102523.77
2019-01-06T08:47:03.927Z,102528.48
2019-01-06T08:49:52.721Z,102535.02
2019-01-06T10:02:52.905Z,102550.19
2019-01-06T10:05:41.757Z,102553.05
2019-01-06T10:08:30.234Z,102543.55
2019-01-06T10:11:18.741Z,102553.78
2019-01-06T10:16:47.284Z,102559.61
2019-01-06T10:19:35.985Z,102560.25
2019-01-06T10:22:24.767Z,102550.26
2019-01-06T10:25:23.610Z,102556.59
2019-01-06T10:28:12.338Z,102556.59
2019-01-06T10:31:01.331Z,102559.03
2019-01-06T10:33:50.144Z,102562.42
2019-01-06T10:36:38.820Z,102562.42
2019-01-06T10:42:23.027Z,102552.45
2019-01-06T10:45:11.542Z,102558.23
2019-01-06T10:48:01.208Z,102556.38
2019-01-06T10:51:09.342Z,102551.12
2019-01-06T11:16:49.038Z,102563.27
2019-01-06T11:19:37.836Z,102568.69
2019-01-06T11:22:26.475Z,102572.97
2019-01-06T11:25:15.169Z,102572.11
2019-01-06T11:28:01.507Z,102569.69
2019-01-06T11:30:32.605Z,102564.62
2019-01-06T11:33:21.871Z,102569.50
2019-01-06T11:50:19.967Z,102576.59
2019-01-06T11:55:49.306Z,102561.71
2019-01-06T12:01:33.680Z,102572.05
2019-01-06T12:04:22.154Z,102566.67
2019-01-06T12:07:10.647Z,102565.59
2019-01-06T12:09:59.140Z,102562.87
2019-01-06T12:12:47.621Z,102557.83
2019-01-06T12:15:36.085Z,102567.50
2019-01-06T12:24:01.334Z,102556.11
2019-01-06T12:26:50.080Z,102557.71
2019-01-06T12:29:38.570Z,102550.35
2019-01-06T12:32:27.223Z,102554.79
2019-01-06T12:35:15.997Z,102556.73
2019-01-06T12:40:43.966Z,102552.89
2019-01-06T12:43:32.467Z,102547.56
2019-01-06T12:49:17.430Z,102556.56
2019-01-06T12:52:06.243Z,102564.17
2019-01-06T12:54:55.017Z,102556.82
2019-01-06T13:00:33.861Z,102571.67
2019-01-06T13:03:22.370Z,102568.50
2019-01-06T13:06:11.457Z,102573.95
2019-01-06T13:11:57.369Z,102573.28
2019-01-06T13:14:46.347Z,102573.28
2019-01-06T13:29:19.148Z,102577.64
2019-01-06T13:32:07.608Z,102574.14
2019-01-06T13:37:36.565Z,102579.58
2019-01-06T13:43:27.259Z,102587.83
2019-01-06T13:46:16.060Z,102586.67
2019-01-06T13:49:04.823Z,102588.53
2019-01-06T13:51:53.433Z,102580.21
2019-01-06T13:54:41.923Z,102583.19
2019-01-06T13:57:30.447Z,102592.52
2019-01-06T14:00:18.953Z,102590.77
2019-01-06T14:03:07.639Z,102585.53
2019-01-06T14:05:56.435Z,102585.80
2019-01-06T14:08:45.178Z,102589.01
2019-01-06T14:11:33.679Z,102593.11
2019-01-06T14:14:22.295Z,102595.27
2019-01-06T14:17:31.976Z,102600.58
2019-01-06T14:23:15.843Z,102602.09
